sensor_id;sensor_type;location;lat;lon;timestamp;P1;durP1;ratioP1;P2;durP2;ratioP2
21084;SDS011;34247;50.064;19.970;2022-08-14T00:00:24;5.00;;;3.72;;
21084;SDS011;34247;50.064;19.970;2022-08-14T00:01:45;8.30;;;3.92;;
21084;SDS011;34247;50.064;19.970;2022-08-14T00:03:00;4.88;;;3.80;;
21084;SDS011;34247;50.064;19.970;2022-08-14T00:04:08;5.07;;;3.75;;
21084;SDS011;34247;50.064;19.970;2022-08-14T00:05:32;4.70;;;3.65;;
21084;SDS011;34247;50.064;19.970;2022-08-14T00:06:37;4.97;;;3.78;;
21084;SDS011;34247;50.064;19.970;2022-08-14T00:07:42;8.73;;;3.80;;
21084;SDS011;34247;50.064;19.970;2022-08-14T00:08:48;4.05;;;3.58;;
21084;SDS011;34247;50.064;19.970;2022-08-14T00:09:52;4.32;;;3.45;;
21084;SDS011;34247;50.064;19.970;2022-08-14T00:11:17;7.32;;;4.63;;
21084;SDS011;34247;50.064;19.970;2022-08-14T00:12:22;3.90;;;3.45;;
21084;SDS011;34247;50.064;19.970;2022-08-14T00:13:48;4.30;;;2.92;;
21084;SDS011;34247;50.064;19.970;2022-08-14T00:14:54;4.18;;;3.58;;
21084;SDS011;34247;50.064;19.970;2022-08-14T00:16:00;10.60;;;4.35;;
21084;SDS011;34247;50.064;19.970;2022-08-14T00:17:05;15.07;;;4.88;;
21084;SDS011;34247;50.064;19.970;2022-08-14T00:18:10;3.75;;;3.38;;
21084;SDS011;34247;50.064;19.970;2022-08-14T00:19:36;4.45;;;3.50;;
21084;SDS011;34247;50.064;19.970;2022-08-14T00:20:43;6.40;;;3.80;;
21084;SDS011;34247;50.064;19.970;2022-08-14T00:21:49;5.50;;;3.55;;
21084;SDS011;34247;50.064;19.970;2022-08-14T00:22:54;7.97;;;4.03;;
21084;SDS011;34247;50.064;19.970;2022-08-14T00:24:00;9.95;;;3.90;;
21084;SDS011;34247;50.064;19.970;2022-08-14T00:25:06;6.45;;;4.53;;
21084;SDS011;34247;50.064;19.970;2022-08-14T00:26:12;4.50;;;3.75;;
21084;SDS011;34247;50.064;19.970;2022-08-14T00:27:25;4.72;;;3.83;;
21084;SDS011;34247;50.064;19.970;2022-08-14T00:28:36;5.20;;;3.90;;
21084;SDS011;34247;50.064;19.970;2022-08-14T00:29:41;3.22;;;2.92;;
21084;SDS011;34247;50.064;19.970;2022-08-14T00:30:46;5.93;;;4.00;;
21084;SDS011;34247;50.064;19.970;2022-08-14T00:31:51;5.07;;;3.55;;
21084;SDS011;34247;50.064;19.970;2022-08-14T00:32:58;8.38;;;4.18;;
21084;SDS011;34247;50.064;19.970;2022-08-14T00:34:03;5.40;;;4.03;;
21084;SDS011;34247;50.064;19.970;2022-08-14T00:35:27;5.85;;;3.80;;
21084;SDS011;34247;50.064;19.970;2022-08-14T00:36:52;5.15;;;3.22;;
21084;SDS011;34247;50.064;19.970;2022-08-14T00:37:56;3.88;;;3.40;;
21084;SDS011;34247;50.064;19.970;2022-08-14T00:39:01;3.90;;;3.10;;
21084;SDS011;34247;50.064;19.970;2022-08-14T00:40:09;5.80;;;3.47;;
21084;SDS011;34247;50.064;19.970;2022-08-14T00:41:35;3.92;;;3.30;;
21084;SDS011;34247;50.064;19.970;2022-08-14T00:42:41;4.00;;;3.50;;
21084;SDS011;34247;50.064;19.970;2022-08-14T00:43:58;5.43;;;3.65;;
21084;SDS011;34247;50.064;19.970;2022-08-14T00:45:04;6.93;;;4.10;;
21084;SDS011;34247;50.064;19.970;2022-08-14T00:46:13;3.55;;;3.13;;
21084;SDS011;34247;50.064;19.970;2022-08-14T00:47:35;4.80;;;3.58;;
21084;SDS011;34247;50.064;19.970;2022-08-14T00:48:46;5.45;;;3.92;;
21084;SDS011;34247;50.064;19.970;2022-08-14T00:49:52;5.57;;;4.55;;
21084;SDS011;34247;50.064;19.970;2022-08-14T00:51:00;5.43;;;3.40;;
21084;SDS011;34247;50.064;19.970;2022-08-14T00:52:06;4.97;;;3.80;;
21084;SDS011;34247;50.064;19.970;2022-08-14T00:53:09;4.28;;;3.20;;
21084;SDS011;34247;50.064;19.970;2022-08-14T00:54:15;5.43;;;4.05;;
21084;SDS011;34247;50.064;19.970;2022-08-14T00:55:24;4.28;;;3.80;;
21084;SDS011;34247;50.064;19.970;2022-08-14T00:56:31;6.20;;;4.35;;
21084;SDS011;34247;50.064;19.970;2022-08-14T00:57:36;5.13;;;3.60;;
21084;SDS011;34247;50.064;19.970;2022-08-14T00:58:44;5.95;;;4.43;;
21084;SDS011;34247;50.064;19.970;2022-08-14T00:59:50;4.65;;;3.55;;
21084;SDS011;34247;50.064;19.970;2022-08-14T01:00:56;4.03;;;3.55;;
21084;SDS011;34247;50.064;19.970;2022-08-14T01:02:14;4.32;;;3.67;;
21084;SDS011;34247;50.064;19.970;2022-08-14T01:03:21;4.57;;;3.85;;
21084;SDS011;34247;50.064;19.970;2022-08-14T01:04:28;3.25;;;2.95;;
21084;SDS011;34247;50.064;19.970;2022-08-14T01:05:54;3.95;;;3.53;;
21084;SDS011;34247;50.064;19.970;2022-08-14T01:06:59;5.30;;;3.40;;
21084;SDS011;34247;50.064;19.970;2022-08-14T01:08:09;4.50;;;4.10;;
21084;SDS011;34247;50.064;19.970;2022-08-14T01:09:33;6.22;;;3.80;;
21084;SDS011;34247;50.064;19.970;2022-08-14T01:10:40;5.10;;;4.18;;
21084;SDS011;34247;50.064;19.970;2022-08-14T01:11:52;6.35;;;3.80;;
21084;SDS011;34247;50.064;19.970;2022-08-14T01:13:05;10.82;;;5.07;;
21084;SDS011;34247;50.064;19.970;2022-08-14T01:14:09;4.30;;;2.85;;
21084;SDS011;34247;50.064;19.970;2022-08-14T01:15:30;5.80;;;3.60;;
21084;SDS011;34247;50.064;19.970;2022-08-14T01:16:54;5.03;;;3.80;;
21084;SDS011;34247;50.064;19.970;2022-08-14T01:17:58;3.83;;;3.42;;
21084;SDS011;34247;50.064;19.970;2022-08-14T01:19:20;6.20;;;3.83;;
21084;SDS011;34247;50.064;19.970;2022-08-14T01:20:45;6.15;;;3.72;;
21084;SDS011;34247;50.064;19.970;2022-08-14T01:22:09;6.60;;;3.63;;
21084;SDS011;34247;50.064;19.970;2022-08-14T01:23:14;4.82;;;4.13;;
21084;SDS011;34247;50.064;19.970;2022-08-14T01:24:23;4.72;;;4.00;;
21084;SDS011;34247;50.064;19.970;2022-08-14T01:25:36;4.28;;;3.85;;
21084;SDS011;34247;50.064;19.970;2022-08-14T01:26:41;6.28;;;4.00;;
21084;SDS011;34247;50.064;19.970;2022-08-14T01:27:52;6.20;;;4.18;;
21084;SDS011;34247;50.064;19.970;2022-08-14T01:29:00;4.68;;;4.22;;
21084;SDS011;34247;50.064;19.970;2022-08-14T01:30:07;4.95;;;3.78;;
21084;SDS011;34247;50.064;19.970;2022-08-14T01:31:15;8.52;;;4.35;;
21084;SDS011;34247;50.064;19.970;2022-08-14T01:32:22;7.93;;;3.90;;
21084;SDS011;34247;50.064;19.970;2022-08-14T01:33:27;5.10;;;3.75;;
21084;SDS011;34247;50.064;19.970;2022-08-14T01:34:53;4.20;;;3.70;;
21084;SDS011;34247;50.064;19.970;2022-08-14T01:36:18;7.43;;;4.03;;
21084;SDS011;34247;50.064;19.970;2022-08-14T01:37:25;6.97;;;4.03;;
21084;SDS011;34247;50.064;19.970;2022-08-14T01:38:33;5.60;;;4.03;;
21084;SDS011;34247;50.064;19.970;2022-08-14T01:39:39;5.47;;;3.83;;
21084;SDS011;34247;50.064;19.970;2022-08-14T01:40:44;7.68;;;4.65;;
21084;SDS011;34247;50.064;19.970;2022-08-14T01:41:50;5.88;;;4.72;;
21084;SDS011;34247;50.064;19.970;2022-08-14T01:43:00;7.00;;;4.60;;
21084;SDS011;34247;50.064;19.970;2022-08-14T01:44:06;6.22;;;4.47;;
21084;SDS011;34247;50.064;19.970;2022-08-14T01:45:34;6.15;;;4.03;;
21084;SDS011;34247;50.064;19.970;2022-08-14T01:46:43;6.20;;;4.32;;
21084;SDS011;34247;50.064;19.970;2022-08-14T01:47:59;8.32;;;4.32;;
21084;SDS011;34247;50.064;19.970;2022-08-14T01:49:06;4.75;;;4.25;;
21084;SDS011;34247;50.064;19.970;2022-08-14T01:50:14;7.75;;;4.57;;
21084;SDS011;34247;50.064;19.970;2022-08-14T01:51:30;4.75;;;3.67;;
21084;SDS011;34247;50.064;19.970;2022-08-14T01:52:36;4.80;;;3.15;;
21084;SDS011;34247;50.064;19.970;2022-08-14T01:54:04;5.65;;;4.15;;
21084;SDS011;34247;50.064;19.970;2022-08-14T01:55:16;5.57;;;4.20;;
21084;SDS011;34247;50.064;19.970;2022-08-14T01:56:21;5.68;;;4.38;;
21084;SDS011;34247;50.064;19.970;2022-08-14T01:57:42;5.20;;;4.32;;
21084;SDS011;34247;50.064;19.970;2022-08-14T01:59:08;8.52;;;4.03;;
21084;SDS011;34247;50.064;19.970;2022-08-14T02:00:23;5.22;;;3.80;;
21084;SDS011;34247;50.064;19.970;2022-08-14T02:01:29;5.53;;;4.25;;
21084;SDS011;34247;50.064;19.970;2022-08-14T02:02:33;4.30;;;3.90;;
21084;SDS011;34247;50.064;19.970;2022-08-14T02:03:39;6.93;;;4.03;;
21084;SDS011;34247;50.064;19.970;2022-08-14T02:04:51;5.97;;;4.25;;
21084;SDS011;34247;50.064;19.970;2022-08-14T02:05:59;4.60;;;3.40;;
21084;SDS011;34247;50.064;19.970;2022-08-14T02:07:24;5.85;;;4.57;;
21084;SDS011;34247;50.064;19.970;2022-08-14T02:08:46;4.95;;;4.45;;
21084;SDS011;34247;50.064;19.970;2022-08-14T02:09:57;5.50;;;4.60;;
21084;SDS011;34247;50.064;19.970;2022-08-14T02:11:01;4.68;;;4.05;;
21084;SDS011;34247;50.064;19.970;2022-08-14T02:12:26;5.72;;;4.65;;
21084;SDS011;34247;50.064;19.970;2022-08-14T02:13:32;5.03;;;3.97;;
21084;SDS011;34247;50.064;19.970;2022-08-14T02:14:39;6.88;;;4.90;;
21084;SDS011;34247;50.064;19.970;2022-08-14T02:16:03;5.95;;;4.95;;
21084;SDS011;34247;50.064;19.970;2022-08-14T02:17:24;14.15;;;5.10;;
21084;SDS011;34247;50.064;19.970;2022-08-14T02:18:32;5.57;;;4.68;;
21084;SDS011;34247;50.064;19.970;2022-08-14T02:19:38;4.53;;;3.85;;
21084;SDS011;34247;50.064;19.970;2022-08-14T02:20:45;8.32;;;5.03;;
21084;SDS011;34247;50.064;19.970;2022-08-14T02:21:54;9.60;;;4.93;;
21084;SDS011;34247;50.064;19.970;2022-08-14T02:23:04;7.25;;;4.68;;
21084;SDS011;34247;50.064;19.970;2022-08-14T02:24:11;5.57;;;4.53;;
21084;SDS011;34247;50.064;19.970;2022-08-14T02:25:36;5.22;;;4.43;;
21084;SDS011;34247;50.064;19.970;2022-08-14T02:26:41;11.27;;;4.47;;
21084;SDS011;34247;50.064;19.970;2022-08-14T02:28:11;5.68;;;4.22;;
21084;SDS011;34247;50.064;19.970;2022-08-14T02:29:35;4.78;;;3.97;;
21084;SDS011;34247;50.064;19.970;2022-08-14T02:31:07;5.25;;;4.18;;
21084;SDS011;34247;50.064;19.970;2022-08-14T02:32:18;6.00;;;5.15;;
21084;SDS011;34247;50.064;19.970;2022-08-14T02:33:39;6.13;;;4.82;;
21084;SDS011;34247;50.064;19.970;2022-08-14T02:34:44;7.55;;;5.57;;
21084;SDS011;34247;50.064;19.970;2022-08-14T02:35:49;6.50;;;4.45;;
21084;SDS011;34247;50.064;19.970;2022-08-14T02:37:08;15.98;;;5.00;;
21084;SDS011;34247;50.064;19.970;2022-08-14T02:38:17;6.97;;;5.38;;
21084;SDS011;34247;50.064;19.970;2022-08-14T02:39:41;5.03;;;4.22;;
21084;SDS011;34247;50.064;19.970;2022-08-14T02:40:48;5.32;;;4.38;;
21084;SDS011;34247;50.064;19.970;2022-08-14T02:41:53;17.48;;;5.43;;
21084;SDS011;34247;50.064;19.970;2022-08-14T02:43:00;8.38;;;4.78;;
21084;SDS011;34247;50.064;19.970;2022-08-14T02:44:10;6.00;;;4.75;;
21084;SDS011;34247;50.064;19.970;2022-08-14T02:45:16;9.80;;;5.25;;
21084;SDS011;34247;50.064;19.970;2022-08-14T02:46:23;4.45;;;3.60;;
21084;SDS011;34247;50.064;19.970;2022-08-14T02:47:34;7.18;;;5.30;;
21084;SDS011;34247;50.064;19.970;2022-08-14T02:48:49;5.13;;;3.92;;
21084;SDS011;34247;50.064;19.970;2022-08-14T02:50:07;8.80;;;4.50;;
21084;SDS011;34247;50.064;19.970;2022-08-14T02:51:13;8.90;;;4.25;;
21084;SDS011;34247;50.064;19.970;2022-08-14T02:52:20;6.53;;;4.88;;
21084;SDS011;34247;50.064;19.970;2022-08-14T02:53:44;6.72;;;4.07;;
21084;SDS011;34247;50.064;19.970;2022-08-14T02:54:48;6.93;;;4.57;;
21084;SDS011;34247;50.064;19.970;2022-08-14T02:55:54;6.88;;;4.63;;
21084;SDS011;34247;50.064;19.970;2022-08-14T02:57:06;8.00;;;4.68;;
21084;SDS011;34247;50.064;19.970;2022-08-14T02:58:18;9.40;;;5.28;;
21084;SDS011;34247;50.064;19.970;2022-08-14T02:59:33;7.20;;;4.10;;
21084;SDS011;34247;50.064;19.970;2022-08-14T03:00:45;9.02;;;4.60;;
21084;SDS011;34247;50.064;19.970;2022-08-14T03:01:54;5.68;;;4.15;;
21084;SDS011;34247;50.064;19.970;2022-08-14T03:03:06;9.18;;;4.10;;
21084;SDS011;34247;50.064;19.970;2022-08-14T03:04:38;5.70;;;3.90;;
21084;SDS011;34247;50.064;19.970;2022-08-14T03:05:44;8.15;;;5.20;;
21084;SDS011;34247;50.064;19.970;2022-08-14T03:06:51;8.32;;;5.50;;
21084;SDS011;34247;50.064;19.970;2022-08-14T03:08:13;7.80;;;3.90;;
21084;SDS011;34247;50.064;19.970;2022-08-14T03:09:21;8.52;;;5.15;;
21084;SDS011;34247;50.064;19.970;2022-08-14T03:10:49;6.30;;;4.70;;
21084;SDS011;34247;50.064;19.970;2022-08-14T03:11:54;6.05;;;4.88;;
21084;SDS011;34247;50.064;19.970;2022-08-14T03:12:59;7.55;;;4.50;;
21084;SDS011;34247;50.064;19.970;2022-08-14T03:14:06;6.82;;;4.97;;
21084;SDS011;34247;50.064;19.970;2022-08-14T03:15:17;6.75;;;5.00;;
21084;SDS011;34247;50.064;19.970;2022-08-14T03:16:23;6.05;;;4.82;;
21084;SDS011;34247;50.064;19.970;2022-08-14T03:17:40;7.00;;;4.15;;
21084;SDS011;34247;50.064;19.970;2022-08-14T03:19:01;9.68;;;5.35;;
21084;SDS011;34247;50.064;19.970;2022-08-14T03:20:10;7.38;;;5.00;;
21084;SDS011;34247;50.064;19.970;2022-08-14T03:21:22;6.93;;;4.43;;
21084;SDS011;34247;50.064;19.970;2022-08-14T03:22:27;5.40;;;4.75;;
21084;SDS011;34247;50.064;19.970;2022-08-14T03:23:32;5.82;;;4.47;;
21084;SDS011;34247;50.064;19.970;2022-08-14T03:24:40;6.82;;;4.05;;
21084;SDS011;34247;50.064;19.970;2022-08-14T03:25:45;5.50;;;4.85;;
21084;SDS011;34247;50.064;19.970;2022-08-14T03:26:50;7.00;;;4.72;;
21084;SDS011;34247;50.064;19.970;2022-08-14T03:28:03;9.95;;;4.68;;
21084;SDS011;34247;50.064;19.970;2022-08-14T03:29:16;6.43;;;5.03;;
21084;SDS011;34247;50.064;19.970;2022-08-14T03:30:26;6.47;;;4.50;;
21084;SDS011;34247;50.064;19.970;2022-08-14T03:31:45;5.97;;;4.68;;
21084;SDS011;34247;50.064;19.970;2022-08-14T03:32:54;11.00;;;5.78;;
21084;SDS011;34247;50.064;19.970;2022-08-14T03:34:03;8.65;;;4.28;;
21084;SDS011;34247;50.064;19.970;2022-08-14T03:35:31;6.25;;;4.43;;
21084;SDS011;34247;50.064;19.970;2022-08-14T03:36:51;10.98;;;5.30;;
21084;SDS011;34247;50.064;19.970;2022-08-14T03:38:20;8.13;;;6.35;;
21084;SDS011;34247;50.064;19.970;2022-08-14T03:39:44;11.32;;;6.65;;
21084;SDS011;34247;50.064;19.970;2022-08-14T03:40:52;9.00;;;5.30;;
21084;SDS011;34247;50.064;19.970;2022-08-14T03:41:57;7.85;;;4.63;;
21084;SDS011;34247;50.064;19.970;2022-08-14T03:43:07;4.93;;;4.30;;
21084;SDS011;34247;50.064;19.970;2022-08-14T03:44:12;6.43;;;4.72;;
21084;SDS011;34247;50.064;19.970;2022-08-14T03:45:37;6.57;;;4.40;;
21084;SDS011;34247;50.064;19.970;2022-08-14T03:46:50;7.40;;;4.75;;
21084;SDS011;34247;50.064;19.970;2022-08-14T03:47:58;11.95;;;5.15;;
21084;SDS011;34247;50.064;19.970;2022-08-14T03:49:04;8.63;;;4.93;;
21084;SDS011;34247;50.064;19.970;2022-08-14T03:50:15;9.48;;;5.20;;
21084;SDS011;34247;50.064;19.970;2022-08-14T03:51:33;5.82;;;4.60;;
21084;SDS011;34247;50.064;19.970;2022-08-14T03:52:39;7.72;;;5.75;;
21084;SDS011;34247;50.064;19.970;2022-08-14T03:53:59;8.90;;;6.03;;
21084;SDS011;34247;50.064;19.970;2022-08-14T03:55:07;9.60;;;5.03;;
21084;SDS011;34247;50.064;19.970;2022-08-14T03:56:15;6.35;;;4.50;;
21084;SDS011;34247;50.064;19.970;2022-08-14T03:57:23;7.90;;;6.03;;
21084;SDS011;34247;50.064;19.970;2022-08-14T03:58:27;7.35;;;5.22;;
21084;SDS011;34247;50.064;19.970;2022-08-14T03:59:38;6.13;;;5.10;;
21084;SDS011;34247;50.064;19.970;2022-08-14T04:00:44;6.35;;;4.15;;
21084;SDS011;34247;50.064;19.970;2022-08-14T04:01:49;5.97;;;4.10;;
21084;SDS011;34247;50.064;19.970;2022-08-14T04:03:08;5.55;;;4.35;;
21084;SDS011;34247;50.064;19.970;2022-08-14T04:04:15;6.03;;;4.75;;
21084;SDS011;34247;50.064;19.970;2022-08-14T04:05:20;6.28;;;4.78;;
21084;SDS011;34247;50.064;19.970;2022-08-14T04:06:25;9.68;;;5.93;;
21084;SDS011;34247;50.064;19.970;2022-08-14T04:07:34;6.55;;;4.50;;
21084;SDS011;34247;50.064;19.970;2022-08-14T04:08:51;10.70;;;5.57;;
21084;SDS011;34247;50.064;19.970;2022-08-14T04:09:59;6.18;;;4.82;;
21084;SDS011;34247;50.064;19.970;2022-08-14T04:11:05;9.38;;;5.43;;
21084;SDS011;34247;50.064;19.970;2022-08-14T04:12:12;7.40;;;5.05;;
21084;SDS011;34247;50.064;19.970;2022-08-14T04:13:29;10.35;;;5.75;;
21084;SDS011;34247;50.064;19.970;2022-08-14T04:14:36;6.68;;;5.40;;
21084;SDS011;34247;50.064;19.970;2022-08-14T04:15:44;6.25;;;4.25;;
21084;SDS011;34247;50.064;19.970;2022-08-14T04:17:03;6.65;;;5.18;;
21084;SDS011;34247;50.064;19.970;2022-08-14T04:18:12;7.68;;;5.22;;
21084;SDS011;34247;50.064;19.970;2022-08-14T04:19:20;6.70;;;5.28;;
21084;SDS011;34247;50.064;19.970;2022-08-14T04:20:26;7.30;;;4.57;;
21084;SDS011;34247;50.064;19.970;2022-08-14T04:21:30;9.30;;;4.90;;
21084;SDS011;34247;50.064;19.970;2022-08-14T04:22:54;7.38;;;5.00;;
21084;SDS011;34247;50.064;19.970;2022-08-14T04:23:59;7.95;;;4.65;;
21084;SDS011;34247;50.064;19.970;2022-08-14T04:25:09;5.47;;;4.13;;
21084;SDS011;34247;50.064;19.970;2022-08-14T04:26:13;6.53;;;4.95;;
21084;SDS011;34247;50.064;19.970;2022-08-14T04:27:41;11.13;;;5.70;;
21084;SDS011;34247;50.064;19.970;2022-08-14T04:29:03;7.50;;;4.28;;
21084;SDS011;34247;50.064;19.970;2022-08-14T04:30:17;8.52;;;5.53;;
21084;SDS011;34247;50.064;19.970;2022-08-14T04:31:34;9.10;;;5.35;;
21084;SDS011;34247;50.064;19.970;2022-08-14T04:33:00;6.10;;;5.25;;
21084;SDS011;34247;50.064;19.970;2022-08-14T04:34:15;6.25;;;5.38;;
21084;SDS011;34247;50.064;19.970;2022-08-14T04:35:29;7.68;;;5.30;;
21084;SDS011;34247;50.064;19.970;2022-08-14T04:36:53;10.02;;;4.85;;
21084;SDS011;34247;50.064;19.970;2022-08-14T04:38:26;6.00;;;5.38;;
21084;SDS011;34247;50.064;19.970;2022-08-14T04:39:49;5.35;;;4.50;;
21084;SDS011;34247;50.064;19.970;2022-08-14T04:41:12;5.95;;;4.47;;
21084;SDS011;34247;50.064;19.970;2022-08-14T04:42:35;9.02;;;4.88;;
21084;SDS011;34247;50.064;19.970;2022-08-14T04:43:57;6.32;;;4.93;;
21084;SDS011;34247;50.064;19.970;2022-08-14T04:45:01;11.43;;;4.50;;
21084;SDS011;34247;50.064;19.970;2022-08-14T04:46:07;6.97;;;4.78;;
21084;SDS011;34247;50.064;19.970;2022-08-14T04:47:34;6.93;;;4.97;;
21084;SDS011;34247;50.064;19.970;2022-08-14T04:48:57;10.00;;;6.18;;
21084;SDS011;34247;50.064;19.970;2022-08-14T04:50:05;7.30;;;4.85;;
21084;SDS011;34247;50.064;19.970;2022-08-14T04:51:12;8.05;;;4.93;;
21084;SDS011;34247;50.064;19.970;2022-08-14T04:52:19;8.38;;;5.68;;
21084;SDS011;34247;50.064;19.970;2022-08-14T04:53:27;10.38;;;4.55;;
21084;SDS011;34247;50.064;19.970;2022-08-14T04:54:37;7.78;;;5.30;;
21084;SDS011;34247;50.064;19.970;2022-08-14T04:55:43;6.80;;;4.68;;
21084;SDS011;34247;50.064;19.970;2022-08-14T04:56:53;6.97;;;4.82;;
21084;SDS011;34247;50.064;19.970;2022-08-14T04:57:59;10.05;;;5.13;;
21084;SDS011;34247;50.064;19.970;2022-08-14T04:59:08;6.65;;;4.72;;
21084;SDS011;34247;50.064;19.970;2022-08-14T05:00:12;4.68;;;4.18;;
21084;SDS011;34247;50.064;19.970;2022-08-14T05:01:19;5.88;;;4.70;;
21084;SDS011;34247;50.064;19.970;2022-08-14T05:02:23;8.85;;;4.60;;
21084;SDS011;34247;50.064;19.970;2022-08-14T05:03:33;6.03;;;4.88;;
21084;SDS011;34247;50.064;19.970;2022-08-14T05:04:45;6.50;;;4.53;;
21084;SDS011;34247;50.064;19.970;2022-08-14T05:06:00;5.68;;;4.22;;
21084;SDS011;34247;50.064;19.970;2022-08-14T05:07:28;5.85;;;4.35;;
21084;SDS011;34247;50.064;19.970;2022-08-14T05:08:53;6.88;;;5.03;;
21084;SDS011;34247;50.064;19.970;2022-08-14T05:10:02;6.57;;;4.30;;
21084;SDS011;34247;50.064;19.970;2022-08-14T05:11:17;6.40;;;4.20;;
21084;SDS011;34247;50.064;19.970;2022-08-14T05:12:21;7.60;;;4.03;;
21084;SDS011;34247;50.064;19.970;2022-08-14T05:13:46;5.63;;;4.28;;
21084;SDS011;34247;50.064;19.970;2022-08-14T05:15:11;7.32;;;4.85;;
21084;SDS011;34247;50.064;19.970;2022-08-14T05:16:15;5.05;;;4.13;;
21084;SDS011;34247;50.064;19.970;2022-08-14T05:17:20;7.28;;;3.80;;
21084;SDS011;34247;50.064;19.970;2022-08-14T05:18:46;8.98;;;4.07;;
21084;SDS011;34247;50.064;19.970;2022-08-14T05:20:11;5.30;;;4.07;;
21084;SDS011;34247;50.064;19.970;2022-08-14T05:21:35;5.03;;;3.42;;
21084;SDS011;34247;50.064;19.970;2022-08-14T05:22:59;4.75;;;3.83;;
21084;SDS011;34247;50.064;19.970;2022-08-14T05:24:06;5.40;;;3.03;;
21084;SDS011;34247;50.064;19.970;2022-08-14T05:25:20;5.35;;;3.38;;
21084;SDS011;34247;50.064;19.970;2022-08-14T05:26:25;5.93;;;3.78;;
21084;SDS011;34247;50.064;19.970;2022-08-14T05:27:30;7.43;;;4.15;;
21084;SDS011;34247;50.064;19.970;2022-08-14T05:28:34;6.60;;;4.43;;
21084;SDS011;34247;50.064;19.970;2022-08-14T05:29:38;4.53;;;3.65;;
21084;SDS011;34247;50.064;19.970;2022-08-14T05:30:47;5.80;;;3.33;;
21084;SDS011;34247;50.064;19.970;2022-08-14T05:31:53;6.35;;;3.67;;
21084;SDS011;34247;50.064;19.970;2022-08-14T05:33:04;3.55;;;3.00;;
21084;SDS011;34247;50.064;19.970;2022-08-14T05:34:09;4.70;;;3.67;;
21084;SDS011;34247;50.064;19.970;2022-08-14T05:35:13;5.32;;;3.75;;
21084;SDS011;34247;50.064;19.970;2022-08-14T05:36:18;4.90;;;3.35;;
21084;SDS011;34247;50.064;19.970;2022-08-14T05:37:22;5.05;;;3.72;;
21084;SDS011;34247;50.064;19.970;2022-08-14T05:38:29;4.07;;;2.92;;
21084;SDS011;34247;50.064;19.970;2022-08-14T05:39:37;4.70;;;3.40;;
21084;SDS011;34247;50.064;19.970;2022-08-14T05:40:43;4.05;;;2.70;;
21084;SDS011;34247;50.064;19.970;2022-08-14T05:41:49;3.25;;;2.90;;
21084;SDS011;34247;50.064;19.970;2022-08-14T05:42:55;6.35;;;3.22;;
21084;SDS011;34247;50.064;19.970;2022-08-14T05:43:59;6.32;;;3.50;;
21084;SDS011;34247;50.064;19.970;2022-08-14T05:45:04;5.15;;;2.90;;
21084;SDS011;34247;50.064;19.970;2022-08-14T05:46:15;3.38;;;3.00;;
21084;SDS011;34247;50.064;19.970;2022-08-14T05:47:24;6.63;;;3.58;;
21084;SDS011;34247;50.064;19.970;2022-08-14T05:48:40;3.75;;;2.88;;
21084;SDS011;34247;50.064;19.970;2022-08-14T05:49:45;4.60;;;2.45;;
21084;SDS011;34247;50.064;19.970;2022-08-14T05:50:50;4.07;;;2.67;;
21084;SDS011;34247;50.064;19.970;2022-08-14T05:51:56;3.33;;;2.70;;
21084;SDS011;34247;50.064;19.970;2022-08-14T05:53:03;3.45;;;2.40;;
21084;SDS011;34247;50.064;19.970;2022-08-14T05:54:07;2.63;;;2.17;;
21084;SDS011;34247;50.064;19.970;2022-08-14T05:55:29;2.65;;;2.10;;
21084;SDS011;34247;50.064;19.970;2022-08-14T05:56:38;3.95;;;2.65;;
21084;SDS011;34247;50.064;19.970;2022-08-14T05:57:55;2.72;;;2.42;;
21084;SDS011;34247;50.064;19.970;2022-08-14T05:59:06;3.58;;;2.75;;
21084;SDS011;34247;50.064;19.970;2022-08-14T06:00:10;3.45;;;2.55;;
21084;SDS011;34247;50.064;19.970;2022-08-14T06:01:31;2.97;;;2.22;;
21084;SDS011;34247;50.064;19.970;2022-08-14T06:02:35;2.60;;;2.40;;
21084;SDS011;34247;50.064;19.970;2022-08-14T06:03:40;4.00;;;1.98;;
21084;SDS011;34247;50.064;19.970;2022-08-14T06:04:45;2.50;;;2.30;;
21084;SDS011;34247;50.064;19.970;2022-08-14T06:05:52;2.33;;;2.13;;
21084;SDS011;34247;50.064;19.970;2022-08-14T06:06:58;1.98;;;1.77;;
21084;SDS011;34247;50.064;19.970;2022-08-14T06:08:02;1.98;;;1.88;;
21084;SDS011;34247;50.064;19.970;2022-08-14T06:09:23;2.85;;;2.05;;
21084;SDS011;34247;50.064;19.970;2022-08-14T06:10:28;2.20;;;1.90;;
21084;SDS011;34247;50.064;19.970;2022-08-14T06:11:35;1.63;;;1.52;;
21084;SDS011;34247;50.064;19.970;2022-08-14T06:12:40;2.35;;;1.90;;
21084;SDS011;34247;50.064;19.970;2022-08-14T06:13:58;2.33;;;2.13;;
21084;SDS011;34247;50.064;19.970;2022-08-14T06:15:06;2.55;;;1.95;;
21084;SDS011;34247;50.064;19.970;2022-08-14T06:16:14;2.70;;;2.13;;
21084;SDS011;34247;50.064;19.970;2022-08-14T06:17:20;1.83;;;1.73;;
21084;SDS011;34247;50.064;19.970;2022-08-14T06:18:28;3.50;;;2.58;;
21084;SDS011;34247;50.064;19.970;2022-08-14T06:19:33;1.98;;;1.73;;
21084;SDS011;34247;50.064;19.970;2022-08-14T06:20:37;2.30;;;2.10;;
21084;SDS011;34247;50.064;19.970;2022-08-14T06:21:43;2.65;;;1.92;;
21084;SDS011;34247;50.064;19.970;2022-08-14T06:22:48;1.80;;;1.70;;
21084;SDS011;34247;50.064;19.970;2022-08-14T06:23:53;1.95;;;1.75;;
21084;SDS011;34247;50.064;19.970;2022-08-14T06:24:57;2.60;;;1.98;;
21084;SDS011;34247;50.064;19.970;2022-08-14T06:26:01;2.28;;;1.85;;
21084;SDS011;34247;50.064;19.970;2022-08-14T06:27:05;2.00;;;1.80;;
21084;SDS011;34247;50.064;19.970;2022-08-14T06:28:22;2.92;;;2.03;;
21084;SDS011;34247;50.064;19.970;2022-08-14T06:29:30;5.63;;;2.38;;
21084;SDS011;34247;50.064;19.970;2022-08-14T06:30:36;2.22;;;1.77;;
21084;SDS011;34247;50.064;19.970;2022-08-14T06:31:48;2.60;;;1.80;;
21084;SDS011;34247;50.064;19.970;2022-08-14T06:33:02;1.55;;;1.45;;
21084;SDS011;34247;50.064;19.970;2022-08-14T06:34:08;1.73;;;1.63;;
21084;SDS011;34247;50.064;19.970;2022-08-14T06:35:32;1.90;;;1.75;;
21084;SDS011;34247;50.064;19.970;2022-08-14T06:36:38;2.40;;;2.20;;
21084;SDS011;34247;50.064;19.970;2022-08-14T06:37:44;1.63;;;1.38;;
21084;SDS011;34247;50.064;19.970;2022-08-14T06:38:52;2.08;;;1.77;;
21084;SDS011;34247;50.064;19.970;2022-08-14T06:39:58;1.48;;;1.38;;
21084;SDS011;34247;50.064;19.970;2022-08-14T06:41:02;1.60;;;1.50;;
21084;SDS011;34247;50.064;19.970;2022-08-14T06:42:12;2.78;;;1.85;;
21084;SDS011;34247;50.064;19.970;2022-08-14T06:43:34;1.98;;;1.85;;
21084;SDS011;34247;50.064;19.970;2022-08-14T06:44:46;2.08;;;1.63;;
21084;SDS011;34247;50.064;19.970;2022-08-14T06:45:49;1.50;;;1.40;;
21084;SDS011;34247;50.064;19.970;2022-08-14T06:46:59;1.63;;;1.33;;
21084;SDS011;34247;50.064;19.970;2022-08-14T06:48:14;1.70;;;1.60;;
21084;SDS011;34247;50.064;19.970;2022-08-14T06:49:25;2.05;;;1.80;;
21084;SDS011;34247;50.064;19.970;2022-08-14T06:50:32;1.73;;;1.45;;
21084;SDS011;34247;50.064;19.970;2022-08-14T06:51:36;1.67;;;1.58;;
21084;SDS011;34247;50.064;19.970;2022-08-14T06:52:47;1.92;;;1.73;;
21084;SDS011;34247;50.064;19.970;2022-08-14T06:53:53;1.88;;;1.48;;
21084;SDS011;34247;50.064;19.970;2022-08-14T06:54:58;3.47;;;2.17;;
21084;SDS011;34247;50.064;19.970;2022-08-14T06:56:02;2.47;;;1.73;;
21084;SDS011;34247;50.064;19.970;2022-08-14T06:57:06;1.73;;;1.58;;
21084;SDS011;34247;50.064;19.970;2022-08-14T06:58:14;1.67;;;1.50;;
21084;SDS011;34247;50.064;19.970;2022-08-14T06:59:32;4.20;;;1.33;;
21084;SDS011;34247;50.064;19.970;2022-08-14T07:00:36;5.05;;;2.20;;
21084;SDS011;34247;50.064;19.970;2022-08-14T07:01:41;2.35;;;2.15;;